Buoy 48642

sailwx.info

Track history (hours):
 
Tides and Currents Weather Stations Pressure Air Temp Water Temp Dewpoint Dewpoint Depression Visibility Wind Speed Wind Dir Waves Ship Positions

Drifting buoy 48642

Last reported at 2018-Feb-23 22:05 UTC. Time now 2018-Feb-24 00:00 UTC.
Position N 70°54' W 152°49'.

Barometer 1013.7 mb
Water temperature -10.3 ° C

Date/timePositionNaut miles runAvg speedWind from/ knotsBaromVisibWave heightAir tempDewpointWater temp
2018-Feb-23 22:05N 70°54' W 152°49'0 0.0 1013.7 -10.3
2018-Feb-23 22:00N 70°54' W 152°49'0 0.0 1013.7 -15.6
2018-Feb-23 21:05N 70°54' W 152°49'0 0.0 1013.8 -10.2
2018-Feb-23 21:00N 70°54' W 152°49'0 0.0 1013.8 -15.8
2018-Feb-23 20:05N 70°54' W 152°49'0 0.0 1013.7 -10.1
2018-Feb-23 20:00N 70°54' W 152°49'0 0.0 1013.7 -16.0
2018-Feb-23 19:05N 70°54' W 152°49'0 0.0 1013.5 -10.0
2018-Feb-23 19:00N 70°54' W 152°49'0 0.0 1013.5 -16.0 -10.0
2018-Feb-23 18:05N 70°54' W 152°49'0 0.0 1013.3 -9.9
2018-Feb-23 18:00N 70°54' W 152°49'0 0.0 1013.3 -16.0 -9.9
2018-Feb-23 17:05N 70°54' W 152°49'0 0.0 1013.2 -9.7
2018-Feb-23 17:00N 70°54' W 152°49'0 0.0 1013.2 -15.4 -9.7
2018-Feb-23 16:06N 70°54' W 152°49'0 0.0 1013.1 -9.6
2018-Feb-23 16:00N 70°54' W 152°49'0 0.0 1013.1 -15.2 -9.6
2018-Feb-23 15:04N 70°54' W 152°49'0 0.0 1012.9 -9.5
2018-Feb-23 15:00N 70°54' W 152°49'0 0.0 1012.9 -13.8 -9.5
2018-Feb-23 14:05N 70°54' W 152°49'0 0.0 1012.7 -9.4
2018-Feb-23 14:00N 70°54' W 152°49'0 0.0 1012.7 -14.2 -9.4
2018-Feb-23 13:05N 70°54' W 152°49'0 0.0 1012.0 -9.2
2018-Feb-23 13:00N 70°54' W 152°49'0 0.0 1012.0 -14.3 -9.2
2018-Feb-23 12:05N 70°54' W 152°49'0 0.0 1011.6 -9.1
2018-Feb-23 12:00N 70°54' W 152°49'0 0.0 1011.6 -14.8 -9.1
2018-Feb-23 11:06N 70°54' W 152°49'0 0.0 1011.1 -9.0
2018-Feb-23 11:00N 70°54' W 152°49'0 0.0 1011.1 -14.8 -9.0
2018-Feb-23 10:04N 70°54' W 152°49'0 0.0 1010.3 -8.9
2018-Feb-23 10:00N 70°54' W 152°49'0 0.0 1010.3 -14.4 -8.9
2018-Feb-23 09:04N 70°54' W 152°49'0 0.0 1009.0 -8.8
2018-Feb-23 09:00N 70°54' W 152°49'0 0.0 1009.0 -12.9 -8.8
2018-Feb-23 08:08N 70°54' W 152°49'0 0.0 1007.9 -8.8
2018-Feb-23 08:00N 70°54' W 152°49'0 0.0 1007.9 -12.4 -8.8
2018-Feb-23 07:05N 70°54' W 152°49'0 0.0 1006.8 -8.7
2018-Feb-23 07:00N 70°54' W 152°49'0 0.0 1006.8 -12.9 -8.7
2018-Feb-23 06:05N 70°54' W 152°49'0 0.0 1006.3 -8.6
2018-Feb-23 06:00N 70°54' W 152°49'0 0.0 1006.3 -12.7 -8.6
2018-Feb-23 05:04N 70°54' W 152°49'0 0.0 1005.1 -8.6
2018-Feb-23 05:00N 70°54' W 152°49'0 0.0 1005.1 -10.6 -8.6
2018-Feb-23 04:08N 70°54' W 152°49'0 0.0 1004.7 -8.6
2018-Feb-23 04:00N 70°54' W 152°49'0 0.0 1004.7 -10.1 -8.6
2018-Feb-23 03:05N 70°54' W 152°49'0 0.0 1004.2 -8.6
2018-Feb-23 03:00N 70°54' W 152°49'0 0.0 1004.2 -9.4 -8.6
2018-Feb-23 02:05N 70°54' W 152°49'0 0.0 1003.5 -8.6
2018-Feb-23 02:00N 70°54' W 152°49'0 0.0 1003.5 -8.9 -8.6
2018-Feb-23 01:04N 70°54' W 152°49'0 0.0 1003.2 -8.7
2018-Feb-23 01:00N 70°54' W 152°49'0 0.0 1003.2 -7.8 -8.7
2018-Feb-23 00:04N 70°54' W 152°49'0 0.0 1002.6 -8.8
2018-Feb-23 00:00N 70°54' W 152°49'0 0.0 1002.6 -7.4 -8.8
2018-Feb-22 23:05N 70°54' W 152°49'0 0.0 1002.8 -8.9
2018-Feb-22 23:00N 70°54' W 152°49'0 0.0 1002.8 -6.9 -8.9
2018-Feb-22 22:05N 70°54' W 152°49'0 0.0 1002.9 -9.0
2018-Feb-22 22:00N 70°54' W 152°49'0 0.0 1002.9 -7.1 -9.0
2018-Feb-22 21:04N 70°54' W 152°49'0 0.0 1003.1 -9.0
2018-Feb-22 21:00N 70°54' W 152°49'0 0.0 1003.1 -8.2 -9.0
2018-Feb-22 20:04N 70°54' W 152°49'0 0.0 1003.0 -9.0
2018-Feb-22 20:00N 70°54' W 152°49'0 0.0 1003.0 -9.9 -9.0
2018-Feb-22 19:05N 70°54' W 152°49'0 0.0 1002.9 -9.0
2018-Feb-22 19:00N 70°54' W 152°49'0 0.0 1002.9 -10.3 -9.0
2018-Feb-22 18:05N 70°54' W 152°49'0 0.0 1003.1 -9.1
2018-Feb-22 18:00N 70°54' W 152°49'0 0.0 1003.1 -7.6 -9.1
2018-Feb-22 17:05N 70°54' W 152°49'0 0.0 1003.5 -9.2
2018-Feb-22 17:00N 70°54' W 152°49'0 0.0 1003.5 -7.8 -9.2
2018-Feb-22 16:04N 70°54' W 152°49'0 0.0 1004.0 -9.3
2018-Feb-22 15:03N 70°54' W 152°49'0 0.0 1004.6 -9.5
2018-Feb-22 15:00N 70°54' W 152°49'0 0.0 1004.6 -8.5 -9.5
2018-Feb-22 14:01N 70°54' W 152°49'0 0.0 1005.5 -9.6
2018-Feb-22 14:00N 70°54' W 152°49'0 0.0 1005.5 -8.7 -9.6
2018-Feb-22 13:00N 70°54' W 152°49'0 0.0 1006.3 -9.2 -9.7
2018-Feb-22 12:00N 70°54' W 152°49'0 0.0 1006.8 -9.8 -9.7
2018-Feb-22 11:05N 70°54' W 152°49'0 0.0 1007.8 -9.8
2018-Feb-22 10:04N 70°54' W 152°49'0 0.0 1008.4 -9.8
2018-Feb-22 10:00N 70°54' W 152°49'0 0.0 1008.4 -11.6 -9.8
2018-Feb-22 09:00N 70°54' W 152°49'0 0.0 1009.4 -13.7 -9.7
2018-Feb-22 08:05N 70°54' W 152°49'0 0.0 1010.0 -9.6
2018-Feb-22 08:00N 70°54' W 152°49'0 0.0 1010.0 -14.1 -9.6
2018-Feb-22 07:05N 70°54' W 152°49'0 0.0 1010.8 -9.5
2018-Feb-22 07:00N 70°54' W 152°49'0 0.0 1010.8 -13.2 -9.5
2018-Feb-22 06:04N 70°54' W 152°49'0 0.0 1011.8 -9.4
2018-Feb-22 06:00N 70°54' W 152°49'0 0.0 1011.8 -13.2 -9.4
2018-Feb-22 05:04N 70°54' W 152°49'0 0.0 1012.4 -9.2
2018-Feb-22 04:06N 70°54' W 152°49'0 0.0 1013.2 -9.0
2018-Feb-22 04:00N 70°54' W 152°49'0 0.0 1013.2 -14.6 -9.0
2018-Feb-22 03:08N 70°54' W 152°49'0 0.0 1013.8 -8.7
2018-Feb-22 03:00N 70°54' W 152°49'0 0.0 1013.8 -15.1 -8.7
2018-Feb-20 14:04N 70°54' W 152°49'0 0.0 1009.3 -7.7
2018-Feb-20 14:00N 70°54' W 152°49'0 0.0 1009.3 -1.1 -7.7
2018-Feb-20 13:05N 70°54' W 152°49'0 0.0 1009.9 -7.9
2018-Feb-20 13:00N 70°54' W 152°49'0 0.0 1009.9 -1.3 -7.9
2018-Feb-20 12:05N 70°54' W 152°49'0 0.0 1010.5 -8.1
2018-Feb-20 12:00N 70°54' W 152°49'0 0.0 1010.5 -2.6 -8.1
2018-Feb-20 11:08N 70°54' W 152°49'0 0.0 1011.0 -8.2
2018-Feb-20 10:04N 70°54' W 152°49'0 0.0 1011.7 -8.4
2018-Feb-20 10:00N 70°54' W 152°49'0 0.0 1011.7 -4.1 -8.4
2018-Feb-20 09:04N 70°54' W 152°49'0 0.0 1012.2 -8.6
2018-Feb-20 09:00N 70°54' W 152°49'0 0.0 1012.2 -4.8 -8.6
2018-Feb-20 08:05N 70°54' W 152°49'0 0.0 1013.1 -8.7
2018-Feb-20 07:05N 70°54' W 152°49'0 0.0 1013.9 -8.9
2018-Feb-20 07:00N 70°54' W 152°49'0 0.0 1013.9 -5.4 -8.9
2018-Feb-20 06:04N 70°54' W 152°49'0 0.0 1014.5 -9.1
2018-Feb-20 06:00N 70°54' W 152°49'0 0.0 1014.5 -6.0 -9.1
2018-Feb-20 05:04N 70°54' W 152°49'0 0.0 1015.5 -9.1
2018-Feb-20 05:00N 70°54' W 152°49'0 0.0 1015.5 -7.4 -9.1
2018-Feb-20 04:02N 70°54' W 152°49'0 0.0 1016.6 -9.2
2018-Feb-20 04:00N 70°54' W 152°49'0 0.0 1016.6 -7.6 -9.2
2018-Feb-20 03:04N 70°54' W 152°49'0 0.0 1017.3 -9.3
2018-Feb-20 03:00N 70°54' W 152°49'0 0.0 1017.3 -7.9 -9.3
2018-Feb-20 02:07N 70°54' W 152°49'0 0.0 1018.1 -9.3
2018-Feb-20 02:00N 70°54' W 152°49'0 0.0 1018.1 -8.6 -9.3
2018-Feb-20 01:05N 70°54' W 152°49'0 0.0 1019.0 -9.3
2018-Feb-20 01:00N 70°54' W 152°49'0 0.0 1019.0 -8.9 -9.3
2018-Feb-20 00:05N 70°54' W 152°49'0 0.0 1019.8 -9.3
2018-Feb-20 00:00N 70°54' W 152°49'0 0.0 1019.8 -10.3 -9.3
2018-Feb-19 23:05N 70°54' W 152°49'0 0.0 1020.1 -9.2
2018-Feb-19 22:04N 70°54' W 152°49'0 0.0 1020.9 -9.2
2018-Feb-19 22:00N 70°54' W 152°49'0 0.0 1020.9 -9.5 -9.2
2018-Feb-19 21:04N 70°54' W 152°49'0 0.0 1020.9 -9.2
2018-Feb-19 21:00N 70°54' W 152°49'0 0.0 1020.9 -10.8 -9.2
2018-Feb-19 20:04N 70°54' W 152°49'0 0.0 1021.4 -9.2
2018-Feb-19 20:00N 70°54' W 152°49'0 0.0 1021.4 -9.6 -9.2
2018-Feb-19 19:05N 70°54' W 152°49'0 0.0 1021.2 -9.3
2018-Feb-19 19:00N 70°54' W 152°49'0 0.0 1021.2 -7.2 -9.3
2018-Feb-19 18:05N 70°54' W 152°49'0 0.0 1021.0 -9.4
2018-Feb-19 18:00N 70°54' W 152°49'0 0.0 1021.0 -5.3 -9.4
2018-Feb-19 17:05N 70°54' W 152°49'0 0.0 1021.3 -9.6
2018-Feb-19 16:04N 70°54' W 152°49'0 0.0 1021.3 -9.7
2018-Feb-19 16:00N 70°54' W 152°49'0 0.0 1021.3 -6.3 -9.7
2018-Feb-19 15:05N 70°54' W 152°49'0 0.0 1021.2 -9.8
2018-Feb-19 15:00N 70°54' W 152°49'0 0.0 1021.2 -8.0 -9.8
2018-Feb-19 14:05N 70°54' W 152°49'0 0.0 1020.8 -9.8
2018-Feb-19 14:00N 70°54' W 152°49'0 0.0 1020.8 -11.8 -9.8
2018-Feb-19 13:05N 70°54' W 152°49'0 0.0 1020.7 -9.8
2018-Feb-19 13:00N 70°54' W 152°49'0 0.0 1020.7 -10.3 -9.8
2018-Feb-19 12:05N 70°54' W 152°49'0 0.0 1020.6 -9.8
2018-Feb-19 11:05N 70°54' W 152°49'0 0.0 1020.6 -9.9
2018-Feb-19 11:00N 70°54' W 152°49'0 0.0 1020.6 -9.5 -9.9
2018-Feb-19 10:04N 70°54' W 152°49'0 0.0 1020.2 -9.9
2018-Feb-19 10:00N 70°54' W 152°49'0 0.0 1020.2 -9.8 -9.9
2018-Feb-19 09:07N 70°54' W 152°49'0 0.0 1020.0 -10.0
2018-Feb-19 09:00N 70°54' W 152°49'0 0.0 1020.0 -10.0 -10.0
2018-Feb-19 08:01N 70°54' W 152°49'0 0.0 1019.7 -10.1
2018-Feb-19 08:00N 70°54' W 152°49'0 0.0 1019.7 -10.2
2018-Feb-19 07:05N 70°54' W 152°49'0 0.0 1019.6 -10.1
2018-Feb-19 07:00N 70°54' W 152°49'0 0.0 1019.6 -10.6
2018-Feb-19 06:05N 70°54' W 152°49'0 0.0 1018.9 -10.1
2018-Feb-19 06:00N 70°54' W 152°49'0 0.0 1018.9 -10.8
2018-Feb-19 05:04N 70°54' W 152°49'0 0.0 1018.5 -10.1
2018-Feb-19 05:00N 70°54' W 152°49'0 0.0 1018.5 -10.8
2018-Feb-19 04:00N 70°54' W 152°49'0 0.0 1019.6 -9.7 -10.2
2018-Feb-19 03:05N 70°54' W 152°49'0 0.0 1017.9 -10.3
2018-Feb-19 03:00N 70°54' W 152°49'0 0.0 1017.9 -9.7
2018-Feb-19 02:05N 70°54' W 152°49'0 0.0 1018.7 -10.3
2018-Feb-19 02:00N 70°54' W 152°49'0 0.0 1018.7 -10.4
2018-Feb-19 01:05N 70°54' W 152°49'0 0.0 1019.7 -10.4
2018-Feb-19 01:00N 70°54' W 152°49'0 0.0 1019.7 -10.6
2018-Feb-19 00:04N 70°54' W 152°49'0 0.0 1019.8 -10.5
2018-Feb-19 00:00N 70°54' W 152°49'0 0.0 1019.8 -9.9
2018-Feb-18 23:07N 70°54' W 152°49'0 0.0 1020.5 -10.6
2018-Feb-18 23:00N 70°54' W 152°49'0 0.0 1020.5 -10.2
2018-Feb-18 22:05N 70°54' W 152°49'0 0.0 1021.8 -10.7
2018-Feb-18 22:00N 70°54' W 152°49'0 0.0 1021.8 -10.4
2018-Feb-18 21:04N 70°54' W 152°49'0 0.0 1022.8 -10.8
2018-Feb-18 21:00N 70°54' W 152°49'0 0.0 1022.8 -11.1
2018-Feb-18 20:05N 70°54' W 152°49'0 0.0 1024.1 -10.8
2018-Feb-18 20:00N 70°54' W 152°49'0 0.0 1024.1 -12.5
2018-Feb-18 19:05N 70°54' W 152°49'0 0.0 1025.1 -10.8
2018-Feb-18 19:00N 70°54' W 152°49'0 0.0 1025.1 -13.2
2018-Feb-18 18:01N 70°54' W 152°49'0 0.0 1026.0 -10.7
2018-Feb-18 18:00N 70°54' W 152°49'0 0.0 1026.0 -14.2
2018-Feb-18 17:06N 70°54' W 152°49'0 0.0 1027.2 -10.7
2018-Feb-18 17:00N 70°54' W 152°49'0 0.0 1027.2 -14.5
2018-Feb-18 16:04N 70°54' W 152°49'0 0.0 1027.8 -10.7
2018-Feb-18 16:00N 70°54' W 152°49'0 0.0 1027.8 -13.3
2018-Feb-18 15:04N 70°54' W 152°49'0 0.0 1028.8 -10.7
2018-Feb-18 15:00N 70°54' W 152°49'0 0.0 1028.8 -13.4
2018-Feb-18 14:05N 70°54' W 152°49'0 0.0 1029.3 -10.7
2018-Feb-18 14:00N 70°54' W 152°49'0 0.0 1029.3 -12.5
2018-Feb-18 13:05N 70°54' W 152°49'0 0.0 1029.8 -10.8
2018-Feb-18 13:00N 70°54' W 152°49'0 0.0 1029.8 -11.0
2018-Feb-18 12:05N 70°54' W 152°49'0 0.0 1030.7 -10.9
2018-Feb-18 12:00N 70°54' W 152°49'0 0.0 1030.7 -11.7
2018-Feb-18 11:05N 70°54' W 152°49'0 0.0 1030.8 -10.9
2018-Feb-18 11:00N 70°54' W 152°49'0 0.0 1030.8 -12.1
2018-Feb-18 10:04N 70°54' W 152°49'0 0.0 1031.4 -11.0
2018-Feb-18 09:04N 70°54' W 152°49'0 0.0 1031.8 -11.0
2018-Feb-18 09:00N 70°54' W 152°49'0 0.0 1031.8 -11.9
2018-Feb-18 08:02N 70°54' W 152°49'0 0.0 1032.3 -11.1
2018-Feb-18 08:00N 70°54' W 152°49'0 0.0 1032.3 -11.7
2018-Feb-18 07:05N 70°54' W 152°49'0 0.0 1032.7 -11.2
2018-Feb-18 07:00N 70°54' W 152°49'0 0.0 1032.7 -12.8
2018-Feb-18 06:05N 70°54' W 152°49'0 0.0 1033.3 -11.1
2018-Feb-18 06:00N 70°54' W 152°49'0 0.0 1033.3 -14.7
2018-Feb-18 05:05N 70°54' W 152°49'0 0.0 1033.4 -11.1
2018-Feb-18 05:00N 70°54' W 152°49'0 0.0 1033.4 -16.9
2018-Feb-18 04:06N 70°54' W 152°49'0 0.0 1033.3 -11.0
2018-Feb-18 04:00N 70°54' W 152°49'0 0.0 1033.3 -16.4
2018-Feb-18 03:05N 70°54' W 152°49'0 0.0 1033.5 -11.0
2018-Feb-18 03:00N 70°54' W 152°49'0 0.0 1033.5 -17.0
2018-Feb-18 02:04N 70°54' W 152°49'0 0.0 1033.3 -10.8
2018-Feb-18 02:00N 70°54' W 152°49'0 0.0 1033.3 -17.3
2018-Feb-18 01:04N 70°54' W 152°49'0 0.0 1033.8 -10.8
2018-Feb-18 01:00N 70°54' W 152°49'0 0.0 1033.8 -16.9
2018-Feb-18 00:04N 70°54' W 152°49'0 0.0 1034.0 -10.7
2018-Feb-18 00:00N 70°54' W 152°49'0 0.0 1034.0 -16.3
2018-Feb-17 23:05N 70°54' W 152°49'0 0.0 1034.0 -10.6
2018-Feb-17 23:00N 70°54' W 152°49'0 0.0 1034.0 -16.0
2018-Feb-17 22:04N 70°54' W 152°49'0 0.0 1034.1 -10.6
2018-Feb-17 22:00N 70°54' W 152°49'0 0.0 1034.1 -15.1
2018-Feb-17 21:04N 70°54' W 152°49'0 0.0 1033.8 -10.5
2018-Feb-17 21:00N 70°54' W 152°49'0 0.0 1033.8 -15.3
2018-Feb-17 20:04N 70°54' W 152°49'0 0.0 1034.0 -10.4
2018-Feb-17 20:00N 70°54' W 152°49'0 0.0 1034.0 -15.8
2018-Feb-17 19:05N 70°54' W 152°49'0 0.0 1033.8 -10.3
2018-Feb-17 19:00N 70°54' W 152°49'0 0.0 1033.8 -16.3
2018-Feb-17 18:09N 70°54' W 152°49'0 0.0 1033.9 -10.1
2018-Feb-17 17:04N 70°54' W 152°49'0 0.0 1034.0 -10.1
2018-Feb-17 17:00N 70°54' W 152°49'0 0.0 1034.0 -14.2
2018-Feb-17 16:04N 70°54' W 152°49'0 0.0 1034.2 -10.0
2018-Feb-17 16:00N 70°54' W 152°49'0 0.0 1034.2 -12.9 -10.0
2018-Feb-17 15:05N 70°54' W 152°49'0 0.0 1034.4 -9.9
2018-Feb-17 15:00N 70°54' W 152°49'0 0.0 1034.4 -13.2 -9.9
2018-Feb-17 14:05N 70°54' W 152°49'0 0.0 1034.6 -9.7
2018-Feb-17 13:05N 70°54' W 152°49'0 0.0 1034.3 -9.5
2018-Feb-17 13:00N 70°54' W 152°49'0 0.0 1034.3 -14.6 -9.5
2018-Feb-17 12:05N 70°54' W 152°49'0 0.0 1035.0 -9.3
2018-Feb-17 12:00N 70°54' W 152°49'0 0.0 1035.0 -17.6 -9.3
2018-Feb-17 11:05N 70°54' W 152°49'0 0.0 1034.6 -9.1
2018-Feb-17 11:00N 70°54' W 152°49'0 0.0 1034.6 -17.9 -9.1
2018-Feb-17 10:05N 70°54' W 152°49'0 0.0 1034.4 -8.9
2018-Feb-17 10:00N 70°54' W 152°49'0 0.0 1034.4 -15.5 -8.9
2018-Feb-17 09:04N 70°54' W 152°49'0 0.0 1034.1 -8.8
2018-Feb-17 09:00N 70°54' W 152°49'0 0.0 1034.1 -13.1 -8.8
2018-Feb-17 08:04N 70°54' W 152°49'0 0.0 1033.8 -8.8
2018-Feb-17 08:00N 70°54' W 152°49'0 0.0 1033.8 -9.7 -8.8
2018-Feb-17 07:06N 70°54' W 152°49'0 0.0 1033.3 -8.8
2018-Feb-17 07:00N 70°54' W 152°49'0 0.0 1033.3 -8.8 -8.8
2018-Feb-17 06:05N 70°54' W 152°49'0 0.0 1033.3 -8.7
2018-Feb-17 06:00N 70°54' W 152°49'0 0.0 1033.3 -8.8 -8.7
2018-Feb-17 05:04N 70°54' W 152°49'0 0.0 1032.9 -8.7
2018-Feb-17 05:00N 70°54' W 152°49'0 0.0 1032.9 -8.1 -8.7
2018-Feb-17 04:05N 70°54' W 152°49'0 0.0 1033.0 -8.7
2018-Feb-17 03:04N 70°54' W 152°49'0 0.0 1032.3 -8.7
2018-Feb-17 02:04N 70°54' W 152°49'0 0.0 1032.0 -8.8
2018-Feb-17 02:00N 70°54' W 152°49'0 0.0 1032.0 -7.2 -8.8
2018-Feb-17 01:04N 70°54' W 152°49'0 0.0 1031.7 -8.8
2018-Feb-17 01:00N 70°54' W 152°49'0 0.0 1031.7 -6.8 -8.8
2018-Feb-17 00:06N 70°54' W 152°49'0 0.0 1031.4 -8.9
2018-Feb-17 00:00N 70°54' W 152°49'0 0.0 1031.4 -6.2 -8.9
2018-Feb-16 23:05N 70°54' W 152°49'0 0.0 1030.8 -8.9
2018-Feb-16 23:00N 70°54' W 152°49'0 0.0 1030.8 -5.5 -8.9
2018-Feb-16 22:04N 70°54' W 152°49'0 0.0 1030.3 -9.0
2018-Feb-16 22:00N 70°54' W 152°49'0 0.0 1030.3 -6.0 -9.0
2018-Feb-16 21:00N 70°54' W 152°49'0 0.0 1030.1 -6.8 -9.0
2018-Feb-16 20:08N 70°54' W 152°49'0 0.0 1029.6 -9.0
2018-Feb-16 20:00N 70°54' W 152°49'0 0.0 1029.6 -7.1 -9.0
2018-Feb-16 19:05N 70°54' W 152°49'0 0.0 1029.1 -9.1
2018-Feb-16 19:00N 70°54' W 152°49'0 0.0 1029.1 -7.3 -9.1
2018-Feb-16 18:05N 70°54' W 152°49'0 0.0 1028.7 -9.1
2018-Feb-16 18:00N 70°54' W 152°49'0 0.0 1028.7 -7.4 -9.1
2018-Feb-16 17:05N 70°54' W 152°49'0 0.0 1028.1 -9.1
2018-Feb-16 17:00N 70°54' W 152°49'0 0.0 1028.1 -7.3 -9.1
2018-Feb-16 16:05N 70°54' W 152°49'0 0.0 1027.9 -9.2
2018-Feb-16 16:00N 70°54' W 152°49'0 0.0 1027.9 -7.4 -9.2
2018-Feb-16 15:05N 70°54' W 152°49'0 0.0 1027.7 -9.2
2018-Feb-16 15:00N 70°54' W 152°49'0 0.0 1027.7 -7.4 -9.2
2018-Feb-16 14:05N 70°54' W 152°49'0 0.0 1027.5 -9.2
2018-Feb-16 14:00N 70°54' W 152°49'0 0.0 1027.5 -7.0 -9.2
2018-Feb-16 13:05N 70°54' W 152°49'0 0.0 1027.4 -9.3
2018-Feb-16 13:00N 70°54' W 152°49'0 0.0 1027.4 -6.8 -9.3
2018-Feb-16 12:05N 70°54' W 152°49'0 0.0 1027.1 -9.3
2018-Feb-16 12:00N 70°54' W 152°49'0 0.0 1027.1 -7.1 -9.3
2018-Feb-16 11:06N 70°54' W 152°49'0 0.0 1026.8 -9.4
2018-Feb-16 11:00N 70°54' W 152°49'0 0.0 1026.8 -6.7 -9.4
2018-Feb-16 10:04N 70°54' W 152°49'0 0.0 1026.5 -9.4
2018-Feb-16 10:00N 70°54' W 152°49'0 0.0 1026.5 -6.8 -9.4
2018-Feb-16 09:00N 70°54' W 152°49'0 0.0 1025.9 -7.2 -9.5
2018-Feb-16 08:05N 70°54' W 152°49'0 0.0 1025.5 -9.5
2018-Feb-16 08:00N 70°54' W 152°49'0 0.0 1025.5 -6.9 -9.5
2018-Feb-16 07:05N 70°54' W 152°49'0 0.0 1025.1 -9.6
2018-Feb-16 07:00N 70°54' W 152°49'0 0.0 1025.1 -7.0 -9.6
2018-Feb-16 06:04N 70°54' W 152°49'0 0.0 1024.7 -9.7
2018-Feb-16 05:04N 70°54' W 152°49'0 0.0 1024.3 -9.7
2018-Feb-16 05:00N 70°54' W 152°49'0 0.0 1024.3 -7.5 -9.7
2018-Feb-16 04:06N 70°54' W 152°49'0 0.0 1023.9 -9.8
2018-Feb-16 04:00N 70°54' W 152°49'0 0.0 1023.9 -7.6 -9.8
2018-Feb-16 03:07N 70°54' W 152°49'0 0.0 1023.6 -9.9
2018-Feb-16 03:00N 70°54' W 152°49'0 0.0 1023.6 -7.3 -9.9
2018-Feb-16 02:04N 70°54' W 152°49'0 0.0 1023.3 -10.0
2018-Feb-16 01:04N 70°54' W 152°49'0 0.0 1022.9 -10.1
2018-Feb-16 01:00N 70°54' W 152°49'0 0.0 1022.9 -6.5
2018-Feb-16 00:05N 70°54' W 152°49'0 0.0 1022.4 -10.2
2018-Feb-16 00:00N 70°54' W 152°49'0 0.0 1022.4 -6.1
2018-Feb-15 23:07N 70°54' W 152°49'0 0.0 1022.1 -10.3
2018-Feb-15 23:00N 70°54' W 152°49'0 0.0 1022.1 -6.3
2018-Feb-15 22:04N 70°54' W 152°49'0 0.0 1021.5 -10.5
2018-Feb-15 22:00N 70°54' W 152°49'0 0.0 1021.5 -6.5
2018-Feb-15 21:05N 70°54' W 152°49'0 0.0 1020.8 -10.6
2018-Feb-15 21:00N 70°54' W 152°49'0 0.0 1020.8 -6.8
2018-Feb-15 20:05N 70°54' W 152°49'0 0.0 1020.0 -10.8
2018-Feb-15 20:00N 70°54' W 152°49'0 0.0 1020.0 -7.3
2018-Feb-15 19:05N 70°54' W 152°49'0 0.0 1019.4 -10.9
2018-Feb-15 19:00N 70°54' W 152°49'0 0.0 1019.4 -7.3
2018-Feb-15 18:05N 70°54' W 152°49'0 0.0 1018.9 -11.1
2018-Feb-15 18:00N 70°54' W 152°49'0 0.0 1018.9 -7.3
2018-Feb-15 17:05N 70°54' W 152°49'0 0.0 1018.6 -11.2
2018-Feb-15 17:00N 70°54' W 152°49'0 0.0 1018.6 -7.3
2018-Feb-15 16:04N 70°54' W 152°49'0 0.0 1018.0 -11.4
2018-Feb-15 16:00N 70°54' W 152°49'0 0.0 1018.0 -7.3
2018-Feb-15 15:04N 70°54' W 152°49'0 0.0 1017.8 -11.6
2018-Feb-15 15:00N 70°54' W 152°49'0 0.0 1017.8 -7.9
2018-Feb-15 14:06N 70°54' W 152°49'0 0.0 1017.3 -11.7
2018-Feb-15 14:00N 70°54' W 152°49'0 0.0 1017.3 -9.0
2018-Feb-15 13:05N 70°54' W 152°49'0 0.0 1016.6 -11.9
2018-Feb-15 13:00N 70°54' W 152°49'0 0.0 1016.6 -9.3
2018-Feb-15 12:00N 70°54' W 152°49'0 0.0 1016.3 -9.8 -12.1
2018-Feb-15 11:04N 70°54' W 152°49'0 0.0 1015.7 -12.2
2018-Feb-15 11:00N 70°54' W 152°49'0 0.0 1015.7 -10.6
2018-Feb-15 10:06N 70°54' W 152°49'0 0.0 1015.3 -12.4
2018-Feb-15 10:00N 70°54' W 152°49'0 0.0 1015.3 -11.7
2018-Feb-15 09:04N 70°54' W 152°49'0 0.0 1014.8 -12.6
2018-Feb-15 09:00N 70°54' W 152°49'0 0.0 1014.8 -12.0
2018-Feb-15 08:05N 70°54' W 152°49'0 0.0 1014.1 -12.8
2018-Feb-15 08:00N 70°54' W 152°49'0 0.0 1014.1 -12.5
2018-Feb-15 07:04N 70°54' W 152°49'0 0.0 1013.8 -12.9
2018-Feb-15 06:04N 70°54' W 152°49'0 0.0 1013.5 -13.1
2018-Feb-15 06:00N 70°54' W 152°49'0 0.0 1013.5 -13.6
2018-Feb-15 05:06N 70°54' W 152°49'0 0.0 1013.3 -13.3
2018-Feb-15 05:00N 70°54' W 152°49'0 0.0 1013.3 -13.7
2018-Feb-15 04:05N 70°54' W 152°49'0 0.0 1013.1 -13.5
2018-Feb-15 04:00N 70°54' W 152°49'0 0.0 1013.1 -14.2
2018-Feb-15 03:04N 70°54' W 152°49'0 0.0 1013.1 -13.8
2018-Feb-15 03:00N 70°54' W 152°49'0 0.0 1013.1 -14.6
2018-Feb-15 02:04N 70°54' W 152°49'0 0.0 1013.1 -14.0
2018-Feb-15 02:00N 70°54' W 152°49'0 0.0 1013.1 -15.0
2018-Feb-15 01:05N 70°54' W 152°49'0 0.0 1015.3 -16.1
2018-Feb-15 01:00N 70°54' W 152°49'   1013.0 -15.3
Track history (hours):
 
Tides and Currents Weather Stations Pressure Air Temp Water Temp Dewpoint Dewpoint Depression Visibility Wind Speed Wind Dir Waves Ship Positions

Drifting buoy 48642

Last reported at 2018-Feb-23 22:05 UTC. Time now 2018-Feb-24 00:00 UTC.
Position N 70°54' W 152°49'.

Barometer 1013.7 mb
Water temperature -10.3 ° C

Date/timePositionNaut miles runAvg speedWind from/ knotsBaromVisibWave heightAir tempDewpointWater temp
2018-Feb-23 22:05N 70°54' W 152°49'0 0.0 1013.7 -10.3
2018-Feb-23 22:00N 70°54' W 152°49'0 0.0 1013.7 -15.6
2018-Feb-23 21:05N 70°54' W 152°49'0 0.0 1013.8 -10.2
2018-Feb-23 21:00N 70°54' W 152°49'0 0.0 1013.8 -15.8
2018-Feb-23 20:05N 70°54' W 152°49'0 0.0 1013.7 -10.1
2018-Feb-23 20:00N 70°54' W 152°49'0 0.0 1013.7 -16.0
2018-Feb-23 19:05N 70°54' W 152°49'0 0.0 1013.5 -10.0
2018-Feb-23 19:00N 70°54' W 152°49'0 0.0 1013.5 -16.0 -10.0
2018-Feb-23 18:05N 70°54' W 152°49'0 0.0 1013.3 -9.9
2018-Feb-23 18:00N 70°54' W 152°49'0 0.0 1013.3 -16.0 -9.9
2018-Feb-23 17:05N 70°54' W 152°49'0 0.0 1013.2 -9.7
2018-Feb-23 17:00N 70°54' W 152°49'0 0.0 1013.2 -15.4 -9.7
2018-Feb-23 16:06N 70°54' W 152°49'0 0.0 1013.1 -9.6
2018-Feb-23 16:00N 70°54' W 152°49'0 0.0 1013.1 -15.2 -9.6
2018-Feb-23 15:04N 70°54' W 152°49'0 0.0 1012.9 -9.5
2018-Feb-23 15:00N 70°54' W 152°49'0 0.0 1012.9 -13.8 -9.5
2018-Feb-23 14:05N 70°54' W 152°49'0 0.0 1012.7 -9.4
2018-Feb-23 14:00N 70°54' W 152°49'0 0.0 1012.7 -14.2 -9.4
2018-Feb-23 13:05N 70°54' W 152°49'0 0.0 1012.0 -9.2
2018-Feb-23 13:00N 70°54' W 152°49'0 0.0 1012.0 -14.3 -9.2
2018-Feb-23 12:05N 70°54' W 152°49'0 0.0 1011.6 -9.1
2018-Feb-23 12:00N 70°54' W 152°49'0 0.0 1011.6 -14.8 -9.1
2018-Feb-23 11:06N 70°54' W 152°49'0 0.0 1011.1 -9.0
2018-Feb-23 11:00N 70°54' W 152°49'0 0.0 1011.1 -14.8 -9.0
2018-Feb-23 10:04N 70°54' W 152°49'0 0.0 1010.3 -8.9
2018-Feb-23 10:00N 70°54' W 152°49'0 0.0 1010.3 -14.4 -8.9
2018-Feb-23 09:04N 70°54' W 152°49'0 0.0 1009.0 -8.8
2018-Feb-23 09:00N 70°54' W 152°49'0 0.0 1009.0 -12.9 -8.8
2018-Feb-23 08:08N 70°54' W 152°49'0 0.0 1007.9 -8.8
2018-Feb-23 08:00N 70°54' W 152°49'0 0.0 1007.9 -12.4 -8.8
2018-Feb-23 07:05N 70°54' W 152°49'0 0.0 1006.8 -8.7
2018-Feb-23 07:00N 70°54' W 152°49'0 0.0 1006.8 -12.9 -8.7
2018-Feb-23 06:05N 70°54' W 152°49'0 0.0 1006.3 -8.6
2018-Feb-23 06:00N 70°54' W 152°49'0 0.0 1006.3 -12.7 -8.6
2018-Feb-23 05:04N 70°54' W 152°49'0 0.0 1005.1 -8.6
2018-Feb-23 05:00N 70°54' W 152°49'0 0.0 1005.1 -10.6 -8.6
2018-Feb-23 04:08N 70°54' W 152°49'0 0.0 1004.7 -8.6
2018-Feb-23 04:00N 70°54' W 152°49'0 0.0 1004.7 -10.1 -8.6
2018-Feb-23 03:05N 70°54' W 152°49'0 0.0 1004.2 -8.6
2018-Feb-23 03:00N 70°54' W 152°49'0 0.0 1004.2 -9.4 -8.6
2018-Feb-23 02:05N 70°54' W 152°49'0 0.0 1003.5 -8.6
2018-Feb-23 02:00N 70°54' W 152°49'0 0.0 1003.5 -8.9 -8.6
2018-Feb-23 01:04N 70°54' W 152°49'0 0.0 1003.2 -8.7
2018-Feb-23 01:00N 70°54' W 152°49'0 0.0 1003.2 -7.8 -8.7
2018-Feb-23 00:04N 70°54' W 152°49'0 0.0 1002.6 -8.8
2018-Feb-23 00:00N 70°54' W 152°49'0 0.0 1002.6 -7.4 -8.8
2018-Feb-22 23:05N 70°54' W 152°49'0 0.0 1002.8 -8.9
2018-Feb-22 23:00N 70°54' W 152°49'0 0.0 1002.8 -6.9 -8.9
2018-Feb-22 22:05N 70°54' W 152°49'0 0.0 1002.9 -9.0
2018-Feb-22 22:00N 70°54' W 152°49'0 0.0 1002.9 -7.1 -9.0
2018-Feb-22 21:04N 70°54' W 152°49'0 0.0 1003.1 -9.0
2018-Feb-22 21:00N 70°54' W 152°49'0 0.0 1003.1 -8.2 -9.0
2018-Feb-22 20:04N 70°54' W 152°49'0 0.0 1003.0 -9.0
2018-Feb-22 20:00N 70°54' W 152°49'0 0.0 1003.0 -9.9 -9.0
2018-Feb-22 19:05N 70°54' W 152°49'0 0.0 1002.9 -9.0
2018-Feb-22 19:00N 70°54' W 152°49'0 0.0 1002.9 -10.3 -9.0
2018-Feb-22 18:05N 70°54' W 152°49'0 0.0 1003.1 -9.1
2018-Feb-22 18:00N 70°54' W 152°49'0 0.0 1003.1 -7.6 -9.1
2018-Feb-22 17:05N 70°54' W 152°49'0 0.0 1003.5 -9.2
2018-Feb-22 17:00N 70°54' W 152°49'0 0.0 1003.5 -7.8 -9.2
2018-Feb-22 16:04N 70°54' W 152°49'0 0.0 1004.0 -9.3
2018-Feb-22 15:03N 70°54' W 152°49'0 0.0 1004.6 -9.5
2018-Feb-22 15:00N 70°54' W 152°49'0 0.0 1004.6 -8.5 -9.5
2018-Feb-22 14:01N 70°54' W 152°49'0 0.0 1005.5 -9.6
2018-Feb-22 14:00N 70°54' W 152°49'0 0.0 1005.5 -8.7 -9.6
2018-Feb-22 13:00N 70°54' W 152°49'0 0.0 1006.3 -9.2 -9.7
2018-Feb-22 12:00N 70°54' W 152°49'0 0.0 1006.8 -9.8 -9.7
2018-Feb-22 11:05N 70°54' W 152°49'0 0.0 1007.8 -9.8
2018-Feb-22 10:04N 70°54' W 152°49'0 0.0 1008.4 -9.8
2018-Feb-22 10:00N 70°54' W 152°49'0 0.0 1008.4 -11.6 -9.8
2018-Feb-22 09:00N 70°54' W 152°49'0 0.0 1009.4 -13.7 -9.7
2018-Feb-22 08:05N 70°54' W 152°49'0 0.0 1010.0 -9.6
2018-Feb-22 08:00N 70°54' W 152°49'0 0.0 1010.0 -14.1 -9.6
2018-Feb-22 07:05N 70°54' W 152°49'0 0.0 1010.8 -9.5
2018-Feb-22 07:00N 70°54' W 152°49'0 0.0 1010.8 -13.2 -9.5
2018-Feb-22 06:04N 70°54' W 152°49'0 0.0 1011.8 -9.4
2018-Feb-22 06:00N 70°54' W 152°49'0 0.0 1011.8 -13.2 -9.4
2018-Feb-22 05:04N 70°54' W 152°49'0 0.0 1012.4 -9.2
2018-Feb-22 04:06N 70°54' W 152°49'0 0.0 1013.2 -9.0
2018-Feb-22 04:00N 70°54' W 152°49'0 0.0 1013.2 -14.6 -9.0
2018-Feb-22 03:08N 70°54' W 152°49'0 0.0 1013.8 -8.7
2018-Feb-22 03:00N 70°54' W 152°49'0 0.0 1013.8 -15.1 -8.7
2018-Feb-20 14:04N 70°54' W 152°49'0 0.0 1009.3 -7.7
2018-Feb-20 14:00N 70°54' W 152°49'0 0.0 1009.3 -1.1 -7.7
2018-Feb-20 13:05N 70°54' W 152°49'0 0.0 1009.9 -7.9
2018-Feb-20 13:00N 70°54' W 152°49'0 0.0 1009.9 -1.3 -7.9
2018-Feb-20 12:05N 70°54' W 152°49'0 0.0 1010.5 -8.1
2018-Feb-20 12:00N 70°54' W 152°49'0 0.0 1010.5 -2.6 -8.1
2018-Feb-20 11:08N 70°54' W 152°49'0 0.0 1011.0 -8.2
2018-Feb-20 10:04N 70°54' W 152°49'0 0.0 1011.7 -8.4
2018-Feb-20 10:00N 70°54' W 152°49'0 0.0 1011.7 -4.1 -8.4
2018-Feb-20 09:04N 70°54' W 152°49'0 0.0 1012.2 -8.6
2018-Feb-20 09:00N 70°54' W 152°49'0 0.0 1012.2 -4.8 -8.6
2018-Feb-20 08:05N 70°54' W 152°49'0 0.0 1013.1 -8.7
2018-Feb-20 07:05N 70°54' W 152°49'0 0.0 1013.9 -8.9
2018-Feb-20 07:00N 70°54' W 152°49'0 0.0 1013.9 -5.4 -8.9
2018-Feb-20 06:04N 70°54' W 152°49'0 0.0 1014.5 -9.1
2018-Feb-20 06:00N 70°54' W 152°49'0 0.0 1014.5 -6.0 -9.1
2018-Feb-20 05:04N 70°54' W 152°49'0 0.0 1015.5 -9.1
2018-Feb-20 05:00N 70°54' W 152°49'0 0.0 1015.5 -7.4 -9.1
2018-Feb-20 04:02N 70°54' W 152°49'0 0.0 1016.6 -9.2
2018-Feb-20 04:00N 70°54' W 152°49'0 0.0 1016.6 -7.6 -9.2
2018-Feb-20 03:04N 70°54' W 152°49'0 0.0 1017.3 -9.3
2018-Feb-20 03:00N 70°54' W 152°49'0 0.0 1017.3 -7.9 -9.3
2018-Feb-20 02:07N 70°54' W 152°49'0 0.0 1018.1 -9.3
2018-Feb-20 02:00N 70°54' W 152°49'0 0.0 1018.1 -8.6 -9.3
2018-Feb-20 01:05N 70°54' W 152°49'0 0.0 1019.0 -9.3
2018-Feb-20 01:00N 70°54' W 152°49'0 0.0 1019.0 -8.9 -9.3
2018-Feb-20 00:05N 70°54' W 152°49'0 0.0 1019.8 -9.3
2018-Feb-20 00:00N 70°54' W 152°49'0 0.0 1019.8 -10.3 -9.3
2018-Feb-19 23:05N 70°54' W 152°49'0 0.0 1020.1 -9.2
2018-Feb-19 22:04N 70°54' W 152°49'0 0.0 1020.9 -9.2
2018-Feb-19 22:00N 70°54' W 152°49'0 0.0 1020.9 -9.5 -9.2
2018-Feb-19 21:04N 70°54' W 152°49'0 0.0 1020.9 -9.2
2018-Feb-19 21:00N 70°54' W 152°49'0 0.0 1020.9 -10.8 -9.2
2018-Feb-19 20:04N 70°54' W 152°49'0 0.0 1021.4 -9.2
2018-Feb-19 20:00N 70°54' W 152°49'0 0.0 1021.4 -9.6 -9.2
2018-Feb-19 19:05N 70°54' W 152°49'0 0.0 1021.2 -9.3
2018-Feb-19 19:00N 70°54' W 152°49'0 0.0 1021.2 -7.2 -9.3
2018-Feb-19 18:05N 70°54' W 152°49'0 0.0 1021.0 -9.4
2018-Feb-19 18:00N 70°54' W 152°49'0 0.0 1021.0 -5.3 -9.4
2018-Feb-19 17:05N 70°54' W 152°49'0 0.0 1021.3 -9.6
2018-Feb-19 16:04N 70°54' W 152°49'0 0.0 1021.3 -9.7
2018-Feb-19 16:00N 70°54' W 152°49'0 0.0 1021.3 -6.3 -9.7
2018-Feb-19 15:05N 70°54' W 152°49'0 0.0 1021.2 -9.8
2018-Feb-19 15:00N 70°54' W 152°49'0 0.0 1021.2 -8.0 -9.8
2018-Feb-19 14:05N 70°54' W 152°49'0 0.0 1020.8 -9.8
2018-Feb-19 14:00N 70°54' W 152°49'0 0.0 1020.8 -11.8 -9.8
2018-Feb-19 13:05N 70°54' W 152°49'0 0.0 1020.7 -9.8
2018-Feb-19 13:00N 70°54' W 152°49'0 0.0 1020.7 -10.3 -9.8
2018-Feb-19 12:05N 70°54' W 152°49'0 0.0 1020.6 -9.8
2018-Feb-19 11:05N 70°54' W 152°49'0 0.0 1020.6 -9.9
2018-Feb-19 11:00N 70°54' W 152°49'0 0.0 1020.6 -9.5 -9.9
2018-Feb-19 10:04N 70°54' W 152°49'0 0.0 1020.2 -9.9
2018-Feb-19 10:00N 70°54' W 152°49'0 0.0 1020.2 -9.8 -9.9
2018-Feb-19 09:07N 70°54' W 152°49'0 0.0 1020.0 -10.0
2018-Feb-19 09:00N 70°54' W 152°49'0 0.0 1020.0 -10.0 -10.0
2018-Feb-19 08:01N 70°54' W 152°49'0 0.0 1019.7 -10.1
2018-Feb-19 08:00N 70°54' W 152°49'0 0.0 1019.7 -10.2
2018-Feb-19 07:05N 70°54' W 152°49'0 0.0 1019.6 -10.1
2018-Feb-19 07:00N 70°54' W 152°49'0 0.0 1019.6 -10.6
2018-Feb-19 06:05N 70°54' W 152°49'0 0.0 1018.9 -10.1
2018-Feb-19 06:00N 70°54' W 152°49'0 0.0 1018.9 -10.8
2018-Feb-19 05:04N 70°54' W 152°49'0 0.0 1018.5 -10.1
2018-Feb-19 05:00N 70°54' W 152°49'0 0.0 1018.5 -10.8
2018-Feb-19 04:00N 70°54' W 152°49'0 0.0 1019.6 -9.7 -10.2
2018-Feb-19 03:05N 70°54' W 152°49'0 0.0 1017.9 -10.3
2018-Feb-19 03:00N 70°54' W 152°49'0 0.0 1017.9 -9.7
2018-Feb-19 02:05N 70°54' W 152°49'0 0.0 1018.7 -10.3
2018-Feb-19 02:00N 70°54' W 152°49'0 0.0 1018.7 -10.4
2018-Feb-19 01:05N 70°54' W 152°49'0 0.0 1019.7 -10.4
2018-Feb-19 01:00N 70°54' W 152°49'0 0.0 1019.7 -10.6
2018-Feb-19 00:04N 70°54' W 152°49'0 0.0 1019.8 -10.5
2018-Feb-19 00:00N 70°54' W 152°49'0 0.0 1019.8 -9.9
2018-Feb-18 23:07N 70°54' W 152°49'0 0.0 1020.5 -10.6
2018-Feb-18 23:00N 70°54' W 152°49'0 0.0 1020.5 -10.2
2018-Feb-18 22:05N 70°54' W 152°49'0 0.0 1021.8 -10.7
2018-Feb-18 22:00N 70°54' W 152°49'0 0.0 1021.8 -10.4
2018-Feb-18 21:04N 70°54' W 152°49'0 0.0 1022.8 -10.8
2018-Feb-18 21:00N 70°54' W 152°49'0 0.0 1022.8 -11.1
2018-Feb-18 20:05N 70°54' W 152°49'0 0.0 1024.1 -10.8
2018-Feb-18 20:00N 70°54' W 152°49'0 0.0 1024.1 -12.5
2018-Feb-18 19:05N 70°54' W 152°49'0 0.0 1025.1 -10.8
2018-Feb-18 19:00N 70°54' W 152°49'0 0.0 1025.1 -13.2
2018-Feb-18 18:01N 70°54' W 152°49'0 0.0 1026.0 -10.7
2018-Feb-18 18:00N 70°54' W 152°49'0 0.0 1026.0 -14.2
2018-Feb-18 17:06N 70°54' W 152°49'0 0.0 1027.2 -10.7
2018-Feb-18 17:00N 70°54' W 152°49'0 0.0 1027.2 -14.5
2018-Feb-18 16:04N 70°54' W 152°49'0 0.0 1027.8 -10.7
2018-Feb-18 16:00N 70°54' W 152°49'0 0.0 1027.8 -13.3
2018-Feb-18 15:04N 70°54' W 152°49'0 0.0 1028.8 -10.7
2018-Feb-18 15:00N 70°54' W 152°49'0 0.0 1028.8 -13.4
2018-Feb-18 14:05N 70°54' W 152°49'0 0.0 1029.3 -10.7
2018-Feb-18 14:00N 70°54' W 152°49'0 0.0 1029.3 -12.5
2018-Feb-18 13:05N 70°54' W 152°49'0 0.0 1029.8 -10.8
2018-Feb-18 13:00N 70°54' W 152°49'0 0.0 1029.8 -11.0
2018-Feb-18 12:05N 70°54' W 152°49'0 0.0 1030.7 -10.9
2018-Feb-18 12:00N 70°54' W 152°49'0 0.0 1030.7 -11.7
2018-Feb-18 11:05N 70°54' W 152°49'0 0.0 1030.8 -10.9
2018-Feb-18 11:00N 70°54' W 152°49'0 0.0 1030.8 -12.1
2018-Feb-18 10:04N 70°54' W 152°49'0 0.0 1031.4 -11.0
2018-Feb-18 09:04N 70°54' W 152°49'0 0.0 1031.8 -11.0
2018-Feb-18 09:00N 70°54' W 152°49'0 0.0 1031.8 -11.9
2018-Feb-18 08:02N 70°54' W 152°49'0 0.0 1032.3 -11.1
2018-Feb-18 08:00N 70°54' W 152°49'0 0.0 1032.3 -11.7
2018-Feb-18 07:05N 70°54' W 152°49'0 0.0 1032.7 -11.2
2018-Feb-18 07:00N 70°54' W 152°49'0 0.0 1032.7 -12.8
2018-Feb-18 06:05N 70°54' W 152°49'0 0.0 1033.3 -11.1
2018-Feb-18 06:00N 70°54' W 152°49'0 0.0 1033.3 -14.7
2018-Feb-18 05:05N 70°54' W 152°49'0 0.0 1033.4 -11.1
2018-Feb-18 05:00N 70°54' W 152°49'0 0.0 1033.4 -16.9
2018-Feb-18 04:06N 70°54' W 152°49'0 0.0 1033.3 -11.0
2018-Feb-18 04:00N 70°54' W 152°49'0 0.0 1033.3 -16.4
2018-Feb-18 03:05N 70°54' W 152°49'0 0.0 1033.5 -11.0
2018-Feb-18 03:00N 70°54' W 152°49'0 0.0 1033.5 -17.0
2018-Feb-18 02:04N 70°54' W 152°49'0 0.0 1033.3 -10.8
2018-Feb-18 02:00N 70°54' W 152°49'0 0.0 1033.3 -17.3
2018-Feb-18 01:04N 70°54' W 152°49'0 0.0 1033.8 -10.8
2018-Feb-18 01:00N 70°54' W 152°49'0 0.0 1033.8 -16.9
2018-Feb-18 00:04N 70°54' W 152°49'0 0.0 1034.0 -10.7
2018-Feb-18 00:00N 70°54' W 152°49'0 0.0 1034.0 -16.3
2018-Feb-17 23:05N 70°54' W 152°49'0 0.0 1034.0 -10.6
2018-Feb-17 23:00N 70°54' W 152°49'0 0.0 1034.0 -16.0
2018-Feb-17 22:04N 70°54' W 152°49'0 0.0 1034.1 -10.6
2018-Feb-17 22:00N 70°54' W 152°49'0 0.0 1034.1 -15.1
2018-Feb-17 21:04N 70°54' W 152°49'0 0.0 1033.8 -10.5
2018-Feb-17 21:00N 70°54' W 152°49'0 0.0 1033.8 -15.3
2018-Feb-17 20:04N 70°54' W 152°49'0 0.0 1034.0 -10.4
2018-Feb-17 20:00N 70°54' W 152°49'0 0.0 1034.0 -15.8
2018-Feb-17 19:05N 70°54' W 152°49'0 0.0 1033.8 -10.3
2018-Feb-17 19:00N 70°54' W 152°49'0 0.0 1033.8 -16.3
2018-Feb-17 18:09N 70°54' W 152°49'0 0.0 1033.9 -10.1
2018-Feb-17 17:04N 70°54' W 152°49'0 0.0 1034.0 -10.1
2018-Feb-17 17:00N 70°54' W 152°49'0 0.0 1034.0 -14.2
2018-Feb-17 16:04N 70°54' W 152°49'0 0.0 1034.2 -10.0
2018-Feb-17 16:00N 70°54' W 152°49'0 0.0 1034.2 -12.9 -10.0
2018-Feb-17 15:05N 70°54' W 152°49'0 0.0 1034.4 -9.9
2018-Feb-17 15:00N 70°54' W 152°49'0 0.0 1034.4 -13.2 -9.9
2018-Feb-17 14:05N 70°54' W 152°49'0 0.0 1034.6 -9.7
2018-Feb-17 13:05N 70°54' W 152°49'0 0.0 1034.3 -9.5
2018-Feb-17 13:00N 70°54' W 152°49'0 0.0 1034.3 -14.6 -9.5
2018-Feb-17 12:05N 70°54' W 152°49'0 0.0 1035.0 -9.3
2018-Feb-17 12:00N 70°54' W 152°49'0 0.0 1035.0 -17.6 -9.3
2018-Feb-17 11:05N 70°54' W 152°49'0 0.0 1034.6 -9.1
2018-Feb-17 11:00N 70°54' W 152°49'0 0.0 1034.6 -17.9 -9.1
2018-Feb-17 10:05N 70°54' W 152°49'0 0.0 1034.4 -8.9
2018-Feb-17 10:00N 70°54' W 152°49'0 0.0 1034.4 -15.5 -8.9
2018-Feb-17 09:04N 70°54' W 152°49'0 0.0 1034.1 -8.8
2018-Feb-17 09:00N 70°54' W 152°49'0 0.0 1034.1 -13.1 -8.8
2018-Feb-17 08:04N 70°54' W 152°49'0 0.0 1033.8 -8.8
2018-Feb-17 08:00N 70°54' W 152°49'0 0.0 1033.8 -9.7 -8.8
2018-Feb-17 07:06N 70°54' W 152°49'0 0.0 1033.3 -8.8
2018-Feb-17 07:00N 70°54' W 152°49'0 0.0 1033.3 -8.8 -8.8
2018-Feb-17 06:05N 70°54' W 152°49'0 0.0 1033.3 -8.7
2018-Feb-17 06:00N 70°54' W 152°49'0 0.0 1033.3 -8.8 -8.7
2018-Feb-17 05:04N 70°54' W 152°49'0 0.0 1032.9 -8.7
2018-Feb-17 05:00N 70°54' W 152°49'0 0.0 1032.9 -8.1 -8.7
2018-Feb-17 04:05N 70°54' W 152°49'0 0.0 1033.0 -8.7
2018-Feb-17 03:04N 70°54' W 152°49'0 0.0 1032.3 -8.7
2018-Feb-17 02:04N 70°54' W 152°49'0 0.0 1032.0 -8.8
2018-Feb-17 02:00N 70°54' W 152°49'0 0.0 1032.0 -7.2 -8.8
2018-Feb-17 01:04N 70°54' W 152°49'0 0.0 1031.7 -8.8
2018-Feb-17 01:00N 70°54' W 152°49'0 0.0 1031.7 -6.8 -8.8
2018-Feb-17 00:06N 70°54' W 152°49'0 0.0 1031.4 -8.9
2018-Feb-17 00:00N 70°54' W 152°49'0 0.0 1031.4 -6.2 -8.9
2018-Feb-16 23:05N 70°54' W 152°49'0 0.0 1030.8 -8.9
2018-Feb-16 23:00N 70°54' W 152°49'0 0.0 1030.8 -5.5 -8.9
2018-Feb-16 22:04N 70°54' W 152°49'0 0.0 1030.3 -9.0
2018-Feb-16 22:00N 70°54' W 152°49'0 0.0 1030.3 -6.0 -9.0
2018-Feb-16 21:00N 70°54' W 152°49'0 0.0 1030.1 -6.8 -9.0
2018-Feb-16 20:08N 70°54' W 152°49'0 0.0 1029.6 -9.0
2018-Feb-16 20:00N 70°54' W 152°49'0 0.0 1029.6 -7.1 -9.0
2018-Feb-16 19:05N 70°54' W 152°49'0 0.0 1029.1 -9.1
2018-Feb-16 19:00N 70°54' W 152°49'0 0.0 1029.1 -7.3 -9.1
2018-Feb-16 18:05N 70°54' W 152°49'0 0.0 1028.7 -9.1
2018-Feb-16 18:00N 70°54' W 152°49'0 0.0 1028.7 -7.4 -9.1
2018-Feb-16 17:05N 70°54' W 152°49'0 0.0 1028.1 -9.1
2018-Feb-16 17:00N 70°54' W 152°49'0 0.0 1028.1 -7.3 -9.1
2018-Feb-16 16:05N 70°54' W 152°49'0 0.0 1027.9 -9.2
2018-Feb-16 16:00N 70°54' W 152°49'0 0.0 1027.9 -7.4 -9.2
2018-Feb-16 15:05N 70°54' W 152°49'0 0.0 1027.7 -9.2
2018-Feb-16 15:00N 70°54' W 152°49'0 0.0 1027.7 -7.4 -9.2
2018-Feb-16 14:05N 70°54' W 152°49'0 0.0 1027.5 -9.2
2018-Feb-16 14:00N 70°54' W 152°49'0 0.0 1027.5 -7.0 -9.2
2018-Feb-16 13:05N 70°54' W 152°49'0 0.0 1027.4 -9.3
2018-Feb-16 13:00N 70°54' W 152°49'0 0.0 1027.4 -6.8 -9.3
2018-Feb-16 12:05N 70°54' W 152°49'0 0.0 1027.1 -9.3
2018-Feb-16 12:00N 70°54' W 152°49'0 0.0 1027.1 -7.1 -9.3
2018-Feb-16 11:06N 70°54' W 152°49'0 0.0 1026.8 -9.4
2018-Feb-16 11:00N 70°54' W 152°49'0 0.0 1026.8 -6.7 -9.4
2018-Feb-16 10:04N 70°54' W 152°49'0 0.0 1026.5 -9.4
2018-Feb-16 10:00N 70°54' W 152°49'0 0.0 1026.5 -6.8 -9.4
2018-Feb-16 09:00N 70°54' W 152°49'0 0.0 1025.9 -7.2 -9.5
2018-Feb-16 08:05N 70°54' W 152°49'0 0.0 1025.5 -9.5
2018-Feb-16 08:00N 70°54' W 152°49'0 0.0 1025.5 -6.9 -9.5
2018-Feb-16 07:05N 70°54' W 152°49'0 0.0 1025.1 -9.6
2018-Feb-16 07:00N 70°54' W 152°49'0 0.0 1025.1 -7.0 -9.6
2018-Feb-16 06:04N 70°54' W 152°49'0 0.0 1024.7 -9.7
2018-Feb-16 05:04N 70°54' W 152°49'0 0.0 1024.3 -9.7
2018-Feb-16 05:00N 70°54' W 152°49'0 0.0 1024.3 -7.5 -9.7
2018-Feb-16 04:06N 70°54' W 152°49'0 0.0 1023.9 -9.8
2018-Feb-16 04:00N 70°54' W 152°49'0 0.0 1023.9 -7.6 -9.8
2018-Feb-16 03:07N 70°54' W 152°49'0 0.0 1023.6 -9.9
2018-Feb-16 03:00N 70°54' W 152°49'0 0.0 1023.6 -7.3 -9.9
2018-Feb-16 02:04N 70°54' W 152°49'0 0.0 1023.3 -10.0
2018-Feb-16 01:04N 70°54' W 152°49'0 0.0 1022.9 -10.1
2018-Feb-16 01:00N 70°54' W 152°49'0 0.0 1022.9 -6.5
2018-Feb-16 00:05N 70°54' W 152°49'0 0.0 1022.4 -10.2
2018-Feb-16 00:00N 70°54' W 152°49'0 0.0 1022.4 -6.1
2018-Feb-15 23:07N 70°54' W 152°49'0 0.0 1022.1 -10.3
2018-Feb-15 23:00N 70°54' W 152°49'0 0.0 1022.1 -6.3
2018-Feb-15 22:04N 70°54' W 152°49'0 0.0 1021.5 -10.5
2018-Feb-15 22:00N 70°54' W 152°49'0 0.0 1021.5 -6.5
2018-Feb-15 21:05N 70°54' W 152°49'0 0.0 1020.8 -10.6
2018-Feb-15 21:00N 70°54' W 152°49'0 0.0 1020.8 -6.8
2018-Feb-15 20:05N 70°54' W 152°49'0 0.0 1020.0 -10.8
2018-Feb-15 20:00N 70°54' W 152°49'0 0.0 1020.0 -7.3
2018-Feb-15 19:05N 70°54' W 152°49'0 0.0 1019.4 -10.9
2018-Feb-15 19:00N 70°54' W 152°49'0 0.0 1019.4 -7.3
2018-Feb-15 18:05N 70°54' W 152°49'0 0.0 1018.9 -11.1
2018-Feb-15 18:00N 70°54' W 152°49'0 0.0 1018.9 -7.3
2018-Feb-15 17:05N 70°54' W 152°49'0 0.0 1018.6 -11.2
2018-Feb-15 17:00N 70°54' W 152°49'0 0.0 1018.6 -7.3
2018-Feb-15 16:04N 70°54' W 152°49'0 0.0 1018.0 -11.4
2018-Feb-15 16:00N 70°54' W 152°49'0 0.0 1018.0 -7.3
2018-Feb-15 15:04N 70°54' W 152°49'0 0.0 1017.8 -11.6
2018-Feb-15 15:00N 70°54' W 152°49'0 0.0 1017.8 -7.9
2018-Feb-15 14:06N 70°54' W 152°49'0 0.0 1017.3 -11.7
2018-Feb-15 14:00N 70°54' W 152°49'0 0.0 1017.3 -9.0
2018-Feb-15 13:05N 70°54' W 152°49'0 0.0 1016.6 -11.9
2018-Feb-15 13:00N 70°54' W 152°49'0 0.0 1016.6 -9.3
2018-Feb-15 12:00N 70°54' W 152°49'0 0.0 1016.3 -9.8 -12.1
2018-Feb-15 11:04N 70°54' W 152°49'0 0.0 1015.7 -12.2
2018-Feb-15 11:00N 70°54' W 152°49'0 0.0 1015.7 -10.6
2018-Feb-15 10:06N 70°54' W 152°49'0 0.0 1015.3 -12.4
2018-Feb-15 10:00N 70°54' W 152°49'0 0.0 1015.3 -11.7
2018-Feb-15 09:04N 70°54' W 152°49'0 0.0 1014.8 -12.6
2018-Feb-15 09:00N 70°54' W 152°49'0 0.0 1014.8 -12.0
2018-Feb-15 08:05N 70°54' W 152°49'0 0.0 1014.1 -12.8
2018-Feb-15 08:00N 70°54' W 152°49'0 0.0 1014.1 -12.5
2018-Feb-15 07:04N 70°54' W 152°49'0 0.0 1013.8 -12.9
2018-Feb-15 06:04N 70°54' W 152°49'0 0.0 1013.5 -13.1
2018-Feb-15 06:00N 70°54' W 152°49'0 0.0 1013.5 -13.6
2018-Feb-15 05:06N 70°54' W 152°49'0 0.0 1013.3 -13.3
2018-Feb-15 05:00N 70°54' W 152°49'0 0.0 1013.3 -13.7
2018-Feb-15 04:05N 70°54' W 152°49'0 0.0 1013.1 -13.5
2018-Feb-15 04:00N 70°54' W 152°49'0 0.0 1013.1 -14.2
2018-Feb-15 03:04N 70°54' W 152°49'0 0.0 1013.1 -13.8
2018-Feb-15 03:00N 70°54' W 152°49'0 0.0 1013.1 -14.6
2018-Feb-15 02:04N 70°54' W 152°49'0 0.0 1013.1 -14.0
2018-Feb-15 02:00N 70°54' W 152°49'0 0.0 1013.1 -15.0
2018-Feb-15 01:05N 70°54' W 152°49'0 0.0 1015.3 -16.1
2018-Feb-15 01:00N 70°54' W 152°49'   1013.0 -15.3

Dump ship's entire track history